Weather at Bang Phra Ultralightport

Public forecast

Using degrees Celsius for public forecast. Weather courtesy of forecast.io.

Closest aviation weather report (METAR) to Bang Phra Ultralightport

Closest report is Suvarnabhumi Airport, 30.4 nm (56.3 km) NNW.

2024/07/24 16:00 (retrieved 21 minutes ago)

VTBS 241600Z 21009KT 9999 FEW020 28/23 Q1004 NOSIG

Closest aviation forecast (TAF) to Bang Phra Ultralightport

Closest forecast is Suvarnabhumi Airport, 30.4 nm (56.3 km) NNW.

2024/07/24 12:00 (retrieved 4 hours ago)

TAF VTBS 241100Z 2412/2518 23008KT 9000 FEW020 SCT080 TEMPO 2412/2416 VRB20KT 3000 TSRA FEW018CB SCT030 BKN080 TEMPO 2422/2502 VRB15KT 4000 TSRA FEW018CB SCT035 BKN080